createdAt,value
2023-04-20T00:01:21.920Z,85.12
2023-04-20T00:04:30.639Z,85.48
2023-04-20T00:07:41.562Z,85.27
2023-04-20T00:10:51.018Z,85.68
2023-04-20T00:13:59.320Z,85.24
2023-04-20T00:17:08.007Z,85.46
2023-04-20T00:20:17.507Z,85.11
2023-04-20T00:23:27.328Z,85.79
2023-04-20T00:26:35.587Z,85.88
2023-04-20T00:29:44.704Z,85.80
2023-04-20T00:32:53.154Z,85.92
2023-04-20T00:36:01.357Z,85.73
2023-04-20T00:39:11.127Z,84.73
2023-04-20T00:42:19.308Z,85.32
2023-04-20T00:45:27.767Z,85.34
2023-04-20T00:48:36.161Z,85.33
2023-04-20T00:51:45.521Z,85.15
2023-04-20T00:54:55.350Z,85.28
2023-04-20T00:58:03.851Z,85.36
2023-04-20T01:01:17.774Z,85.90
2023-04-20T01:04:28.352Z,85.85
2023-04-20T01:07:38.819Z,85.70
2023-04-20T01:10:48.252Z,85.85
2023-04-20T01:13:56.716Z,86.26
2023-04-20T01:17:06.108Z,86.33
2023-04-20T01:20:14.829Z,86.00
2023-04-20T01:23:24.361Z,86.58
2023-04-20T01:26:32.708Z,86.32
2023-04-20T01:29:41.433Z,86.29
2023-04-20T01:32:50.990Z,86.53
2023-04-20T01:35:59.171Z,86.54
2023-04-20T01:39:08.801Z,86.79
2023-04-20T01:42:17.337Z,86.53
2023-04-20T01:45:25.786Z,86.25
2023-04-20T01:48:34.974Z,86.16
2023-04-20T01:51:43.484Z,86.44
2023-04-20T01:54:53.249Z,86.45
2023-04-20T01:58:01.819Z,85.96
2023-04-20T02:01:10.700Z,86.09
2023-04-20T02:04:19.436Z,85.56
2023-04-20T02:07:27.616Z,86.22
2023-04-20T02:10:37.461Z,86.48
2023-04-20T02:13:45.929Z,85.87
2023-04-20T02:16:57.000Z,85.31
2023-04-20T02:20:08.686Z,85.49
2023-04-20T02:23:17.048Z,86.03
2023-04-20T02:26:26.811Z,85.59
2023-04-20T02:29:35.589Z,86.19
2023-04-20T02:32:43.843Z,85.74
2023-04-20T02:35:52.088Z,84.98
2023-04-20T02:39:00.295Z,85.01
2023-04-20T02:42:10.048Z,85.75
2023-04-20T02:45:18.682Z,85.54
2023-04-20T02:48:28.079Z,84.58
2023-04-20T02:51:36.792Z,85.68
2023-04-20T02:54:45.255Z,85.25
2023-04-20T02:57:56.106Z,85.64
2023-04-20T03:01:16.616Z,85.88
2023-04-20T03:04:27.842Z,85.28
2023-04-20T03:07:41.969Z,86.56
2023-04-20T03:10:52.594Z,86.00
2023-04-20T03:14:03.475Z,85.92
2023-04-20T03:17:11.916Z,86.03
2023-04-20T03:20:20.665Z,85.57
2023-04-20T03:23:29.369Z,85.47
2023-04-20T03:26:38.042Z,85.03
2023-04-20T03:30:00.416Z,85.27
2023-04-20T03:33:09.403Z,86.15
2023-04-20T03:36:17.629Z,86.05
2023-04-20T03:39:25.866Z,86.34
2023-04-20T03:42:34.035Z,86.09
2023-04-20T03:45:43.523Z,85.26
2023-04-20T03:48:52.022Z,85.85
2023-04-20T03:52:00.338Z,86.02
2023-04-20T03:55:09.991Z,85.50
2023-04-20T03:58:22.717Z,86.03
2023-04-20T04:01:44.998Z,85.05
2023-04-20T04:04:54.553Z,84.42
2023-04-20T04:08:03.522Z,85.30
2023-04-20T04:11:13.184Z,84.61
2023-04-20T04:14:21.454Z,84.52
2023-04-20T04:17:30.983Z,85.07
2023-04-20T04:20:40.048Z,85.08
2023-04-20T04:23:50.802Z,85.21
2023-04-20T04:27:17.309Z,84.86
2023-04-20T04:30:34.961Z,84.93
2023-04-20T04:33:45.751Z,85.02
2023-04-20T04:36:58.823Z,84.70
2023-04-20T04:40:21.419Z,84.61
2023-04-20T04:43:33.856Z,84.64
2023-04-20T04:47:05.475Z,85.12
2023-04-20T04:50:15.053Z,85.17
2023-04-20T04:53:23.182Z,84.86
2023-04-20T04:56:31.317Z,84.90
2023-04-20T04:59:40.939Z,85.13
2023-04-20T05:02:49.269Z,85.07
2023-04-20T05:05:59.816Z,85.45
2023-04-20T05:09:08.214Z,85.29
2023-04-20T05:12:16.393Z,84.54
2023-04-20T05:15:24.614Z,84.18
2023-04-20T05:18:32.825Z,84.25
2023-04-20T05:21:42.271Z,83.98
2023-04-20T05:24:50.505Z,84.38
2023-04-20T05:27:58.594Z,84.12
2023-04-20T05:31:08.393Z,83.95
2023-04-20T05:34:16.652Z,84.19
2023-04-20T05:37:27.399Z,83.69
2023-04-20T05:40:35.910Z,83.43
2023-04-20T05:43:43.997Z,83.08
2023-04-20T05:46:52.129Z,83.10
2023-04-20T05:50:00.518Z,83.87
2023-04-20T05:53:09.950Z,83.57
2023-04-20T05:56:18.569Z,83.53
2023-04-20T05:59:27.776Z,83.31
2023-04-20T06:02:36.134Z,83.78
2023-04-20T06:05:44.559Z,83.33
2023-04-20T06:08:55.111Z,83.11
2023-04-20T06:12:03.691Z,82.60
2023-04-20T06:15:12.628Z,82.54
2023-04-20T06:18:20.860Z,82.01
2023-04-20T06:21:29.038Z,82.76
2023-04-20T06:24:38.726Z,82.53
2023-04-20T06:27:47.752Z,82.96
2023-04-20T06:30:56.726Z,83.10
2023-04-20T06:34:05.283Z,83.52
2023-04-20T06:37:15.513Z,82.55
2023-04-20T06:40:27.920Z,82.83
2023-04-20T06:43:36.152Z,81.69
2023-04-20T06:46:44.354Z,81.70
2023-04-20T06:49:52.480Z,81.80
2023-04-20T06:53:03.861Z,82.47
2023-04-20T06:56:13.419Z,81.60
2023-04-20T06:59:21.544Z,81.08
2023-04-20T07:02:29.827Z,81.16
2023-04-20T07:05:38.156Z,81.21
2023-04-20T07:08:46.674Z,81.52
2023-04-20T07:11:56.382Z,80.71
2023-04-20T07:15:06.561Z,80.86
2023-04-20T07:18:14.763Z,81.80
2023-04-20T07:21:23.016Z,81.98
2023-04-20T07:24:31.139Z,81.65
2023-04-20T07:27:42.398Z,82.42
2023-04-20T07:30:50.563Z,83.30
2023-04-20T07:33:58.651Z,83.74
2023-04-20T07:37:07.232Z,82.59
2023-04-20T07:40:16.901Z,82.08
2023-04-20T07:43:28.433Z,81.82
2023-04-20T07:46:37.149Z,81.84
2023-04-20T07:49:45.491Z,81.07
2023-04-20T07:52:53.844Z,81.91
2023-04-20T07:56:02.046Z,80.59
2023-04-20T07:59:11.538Z,80.76
2023-04-20T08:02:20.573Z,80.91
2023-04-20T08:05:29.039Z,81.16
2023-04-20T08:08:38.008Z,81.67
2023-04-20T08:11:46.578Z,80.80
2023-04-20T08:14:59.927Z,81.23
2023-04-20T08:18:08.110Z,81.65
2023-04-20T08:21:16.326Z,81.80
2023-04-20T08:24:24.553Z,80.99
2023-04-20T08:27:33.495Z,81.50
2023-04-20T08:30:45.513Z,81.85
2023-04-20T08:33:53.730Z,80.26
2023-04-20T08:37:02.119Z,80.54
2023-04-20T08:40:11.666Z,79.72
2023-04-20T08:43:22.073Z,80.64
2023-04-20T08:46:34.874Z,80.51
2023-04-20T08:49:45.523Z,80.48
2023-04-20T08:52:53.656Z,80.78
2023-04-20T08:56:01.848Z,81.30
2023-04-20T08:59:11.210Z,81.36
2023-04-20T09:02:21.989Z,80.99
2023-04-20T09:05:32.132Z,81.80
2023-04-20T09:08:42.879Z,81.55
2023-04-20T09:12:03.643Z,80.75
2023-04-20T09:15:12.887Z,78.67
2023-04-20T09:18:23.673Z,79.22
2023-04-20T09:21:32.687Z,79.53
2023-04-20T09:24:42.959Z,79.93
2023-04-20T09:28:01.914Z,80.58
2023-04-20T09:31:19.934Z,80.22
2023-04-20T09:34:29.688Z,79.32
2023-04-20T09:37:48.285Z,80.20
2023-04-20T09:40:59.152Z,78.65
2023-04-20T09:44:09.445Z,79.28
2023-04-20T09:47:19.213Z,79.15
2023-04-20T09:50:38.312Z,78.80
2023-04-20T09:53:56.126Z,79.47
2023-04-20T09:57:04.696Z,80.60
2023-04-20T10:00:14.520Z,80.26
2023-04-20T10:03:22.840Z,81.17
2023-04-20T10:06:36.756Z,80.56
2023-04-20T10:09:45.286Z,80.11
2023-04-20T10:12:56.095Z,80.24
2023-04-20T10:16:04.345Z,81.64
2023-04-20T10:19:12.721Z,79.86
2023-04-20T10:22:33.075Z,79.24
2023-04-20T10:25:42.069Z,78.00
2023-04-20T10:28:50.307Z,78.07
2023-04-20T10:31:59.020Z,76.80
2023-04-20T10:35:11.033Z,75.95
2023-04-20T10:38:31.872Z,75.39
2023-04-20T10:41:52.977Z,73.08
2023-04-20T10:45:01.401Z,73.76
2023-04-20T10:48:10.663Z,74.19
2023-04-20T10:51:19.159Z,73.19
2023-04-20T10:54:38.034Z,71.87
2023-04-20T10:57:48.838Z,69.98
2023-04-20T11:01:02.524Z,70.59
2023-04-20T11:04:11.773Z,71.58
2023-04-20T11:07:20.925Z,70.66
2023-04-20T11:10:42.094Z,70.86
2023-04-20T11:13:50.478Z,71.21
2023-04-20T11:16:59.314Z,72.76
2023-04-20T11:20:10.973Z,72.23
2023-04-20T11:23:21.296Z,73.81
2023-04-20T11:26:40.411Z,74.24
2023-04-20T11:29:58.557Z,75.06
2023-04-20T11:33:06.875Z,74.82
2023-04-20T11:36:22.655Z,75.70
2023-04-20T11:39:32.116Z,75.94
2023-04-20T11:42:41.622Z,75.36
2023-04-20T11:45:49.793Z,74.56
2023-04-20T11:48:59.948Z,74.08
2023-04-20T11:52:08.382Z,75.42
2023-04-20T11:55:16.539Z,75.41
2023-04-20T11:58:26.326Z,76.07
2023-04-20T12:01:36.440Z,76.22
2023-04-20T12:04:45.033Z,76.49
2023-04-20T12:07:54.437Z,76.87
2023-04-20T12:11:02.582Z,77.19
2023-04-20T12:14:11.991Z,76.36
2023-04-20T12:17:20.101Z,74.91
2023-04-20T12:20:28.695Z,74.41
2023-04-20T12:23:37.005Z,74.87
2023-04-20T12:26:45.970Z,75.69
2023-04-20T12:29:55.474Z,75.20
2023-04-20T12:33:04.442Z,73.24
2023-04-20T12:36:12.666Z,73.31
2023-04-20T12:39:20.782Z,73.22
2023-04-20T12:42:29.401Z,72.79
2023-04-20T12:45:38.860Z,73.10
2023-04-20T12:48:47.332Z,73.26
2023-04-20T12:51:55.509Z,73.21
2023-04-20T12:55:04.144Z,73.16
2023-04-20T12:58:12.620Z,72.26
2023-04-20T13:01:22.222Z,71.40
2023-04-20T13:04:31.359Z,71.53
2023-04-20T13:07:39.588Z,71.83
2023-04-20T13:10:47.790Z,72.04
2023-04-20T13:13:56.505Z,71.60
2023-04-20T13:17:06.889Z,70.82
2023-04-20T13:20:15.372Z,70.92
2023-04-20T13:23:23.524Z,71.86
2023-04-20T13:26:32.007Z,72.33
2023-04-20T13:29:41.384Z,71.65
2023-04-20T13:32:51.245Z,71.64
2023-04-20T13:35:59.546Z,72.85
2023-04-20T13:39:07.995Z,73.27
2023-04-20T13:42:16.817Z,75.69
2023-04-20T13:45:25.947Z,76.36
2023-04-20T13:48:35.536Z,76.17
2023-04-20T13:51:44.411Z,76.43
2023-04-20T13:54:52.638Z,75.17
2023-04-20T13:58:00.974Z,75.82
2023-04-20T14:01:09.801Z,75.20
2023-04-20T14:04:19.963Z,74.72
2023-04-20T14:07:28.539Z,74.62
2023-04-20T14:10:39.554Z,74.78
2023-04-20T14:13:47.980Z,74.66
2023-04-20T14:16:56.441Z,75.14
2023-04-20T14:20:07.970Z,75.12
2023-04-20T14:23:16.220Z,76.83
2023-04-20T14:26:24.346Z,76.98
2023-04-20T14:29:32.469Z,77.47
2023-04-20T14:32:41.908Z,78.19
2023-04-20T14:35:51.491Z,77.58
2023-04-20T14:38:59.614Z,77.71
2023-04-20T14:42:08.536Z,77.38
2023-04-20T14:45:16.758Z,76.74
2023-04-20T14:48:26.656Z,75.55
2023-04-20T14:51:36.525Z,75.21
2023-04-20T14:54:44.789Z,75.52
2023-04-20T14:57:56.624Z,76.49
2023-04-20T15:01:05.038Z,76.72
2023-04-20T15:04:13.259Z,76.57
2023-04-20T15:07:23.041Z,74.12
2023-04-20T15:10:31.476Z,75.24
2023-04-20T15:13:42.433Z,74.38
2023-04-20T15:16:53.550Z,74.78
2023-04-20T15:20:01.815Z,74.88
2023-04-20T15:23:11.503Z,75.51
2023-04-20T15:26:20.415Z,74.88
2023-04-20T15:29:29.863Z,74.01
2023-04-20T15:32:38.301Z,73.82
2023-04-20T15:35:46.555Z,73.88
2023-04-20T15:38:57.929Z,74.30
2023-04-20T15:42:06.830Z,74.78
2023-04-20T15:45:15.904Z,74.76
2023-04-20T15:48:24.268Z,73.23
2023-04-20T15:51:32.701Z,74.91
2023-04-20T15:54:42.584Z,74.77
2023-04-20T15:57:56.869Z,75.06
2023-04-20T16:01:05.268Z,75.62
2023-04-20T16:04:13.840Z,75.37
2023-04-20T16:07:22.244Z,76.40
2023-04-20T16:10:31.862Z,76.77
2023-04-20T16:13:40.051Z,77.76
2023-04-20T16:16:49.025Z,78.38
2023-04-20T16:19:57.328Z,77.62
2023-04-20T16:23:05.978Z,77.91
2023-04-20T16:26:16.124Z,78.20
2023-04-20T16:29:24.360Z,78.97
2023-04-20T16:32:34.398Z,78.64
2023-04-20T16:35:42.784Z,78.41
2023-04-20T16:38:51.172Z,77.97
2023-04-20T16:42:00.786Z,78.47
2023-04-20T16:45:10.140Z,78.88
2023-04-20T16:48:18.578Z,78.78
2023-04-20T16:51:27.281Z,78.84
2023-04-20T16:54:35.630Z,80.37
2023-04-20T16:57:45.400Z,80.85
2023-04-20T17:00:53.763Z,81.10
2023-04-20T17:04:02.346Z,79.34
2023-04-20T17:07:12.023Z,80.25
2023-04-20T17:10:20.478Z,80.08
2023-04-20T17:13:30.062Z,80.84
2023-04-20T17:16:38.188Z,80.26
2023-04-20T17:19:46.554Z,79.35
2023-04-20T17:22:54.806Z,79.93
2023-04-20T17:26:03.622Z,80.45
2023-04-20T17:29:13.549Z,80.50
2023-04-20T17:32:21.889Z,81.07
2023-04-20T17:35:30.423Z,80.48
2023-04-20T17:38:39.140Z,80.63
2023-04-20T17:41:47.330Z,80.72
2023-04-20T17:44:57.330Z,81.65
2023-04-20T17:48:06.715Z,81.19
2023-04-20T17:51:17.601Z,81.00
2023-04-20T17:54:26.725Z,81.57
2023-04-20T17:57:34.994Z,81.15
2023-04-20T18:00:47.449Z,81.15
2023-04-20T18:03:55.958Z,81.46
2023-04-20T18:07:04.395Z,81.82
2023-04-20T18:10:15.660Z,81.40
2023-04-20T18:13:24.118Z,81.87
2023-04-20T18:16:33.659Z,81.57
2023-04-20T18:19:42.154Z,82.03
2023-04-20T18:22:50.636Z,83.08
2023-04-20T18:25:58.813Z,82.35
2023-04-20T18:29:06.932Z,82.54
2023-04-20T18:32:18.038Z,82.68
2023-04-20T18:35:26.396Z,82.16
2023-04-20T18:38:35.221Z,83.03
2023-04-20T18:41:43.303Z,82.44
2023-04-20T18:44:53.026Z,82.78
2023-04-20T18:48:03.218Z,83.09
2023-04-20T18:51:11.635Z,81.88
2023-04-20T18:54:19.940Z,82.70
2023-04-20T18:57:29.061Z,83.00
2023-04-20T19:00:37.374Z,82.85
2023-04-20T19:03:48.185Z,83.21
2023-04-20T19:06:56.731Z,82.91
2023-04-20T19:10:06.012Z,83.61
2023-04-20T19:13:17.537Z,82.81
2023-04-20T19:16:26.135Z,83.44
2023-04-20T19:19:36.589Z,83.52
2023-04-20T19:22:44.966Z,83.29
2023-04-20T19:25:53.276Z,83.60
2023-04-20T19:29:01.606Z,83.13
2023-04-20T19:32:09.798Z,82.97
2023-04-20T19:35:19.854Z,83.22
2023-04-20T19:38:31.073Z,83.48
2023-04-20T19:41:39.685Z,83.12
2023-04-20T19:44:48.120Z,83.29
2023-04-20T19:47:56.467Z,83.28
2023-04-20T19:51:06.649Z,83.08
2023-04-20T19:54:16.677Z,83.61
2023-04-20T19:57:25.029Z,83.22
2023-04-20T20:00:33.440Z,82.61
2023-04-20T20:03:42.908Z,82.18
2023-04-20T20:06:52.868Z,82.35
2023-04-20T20:10:01.524Z,82.59
2023-04-20T20:13:09.873Z,82.46
2023-04-20T20:16:18.397Z,82.50
2023-04-20T20:19:27.804Z,82.34
2023-04-20T20:22:37.626Z,82.31
2023-04-20T20:25:46.350Z,82.42
2023-04-20T20:28:54.700Z,82.34
2023-04-20T20:32:03.050Z,82.53
2023-04-20T20:35:13.416Z,83.00
2023-04-20T20:38:23.548Z,82.56
2023-04-20T20:41:32.555Z,81.26
2023-04-20T20:44:42.218Z,82.23
2023-04-20T20:47:50.850Z,81.89
2023-04-20T20:50:59.422Z,81.67
2023-04-20T20:54:09.260Z,81.56
2023-04-20T20:57:17.493Z,81.50
2023-04-20T21:00:30.995Z,81.71
2023-04-20T21:03:39.410Z,82.59
2023-04-20T21:06:48.259Z,81.95
2023-04-20T21:09:58.350Z,81.98
2023-04-20T21:13:07.360Z,82.78
2023-04-20T21:16:18.547Z,83.06
2023-04-20T21:19:27.078Z,82.68
2023-04-20T21:22:36.329Z,83.06
2023-04-20T21:25:46.187Z,83.10
2023-04-20T21:28:55.273Z,82.42
2023-04-20T21:32:03.510Z,82.28
2023-04-20T21:35:12.602Z,82.00
2023-04-20T21:38:20.946Z,80.67
2023-04-20T21:41:32.197Z,81.34
2023-04-20T21:44:40.544Z,81.46
2023-04-20T21:47:49.198Z,81.32
2023-04-20T21:50:57.361Z,81.33
2023-04-20T21:54:05.838Z,82.03
2023-04-20T21:57:15.231Z,82.92
2023-04-20T22:00:23.651Z,83.10
2023-04-20T22:03:32.276Z,82.99
2023-04-20T22:06:40.616Z,83.02
2023-04-20T22:09:48.871Z,82.33
2023-04-20T22:12:58.320Z,81.19
2023-04-20T22:16:07.373Z,82.19
2023-04-20T22:19:16.187Z,82.76
2023-04-20T22:22:24.443Z,82.18
2023-04-20T22:25:32.554Z,81.36
2023-04-20T22:28:42.378Z,82.05
2023-04-20T22:31:50.597Z,81.55
2023-04-20T22:34:58.803Z,82.12
2023-04-20T22:38:06.911Z,82.07
2023-04-20T22:41:17.268Z,82.87
2023-04-20T22:44:27.529Z,83.05
2023-04-20T22:47:37.118Z,82.89
2023-04-20T22:50:45.550Z,82.82
2023-04-20T22:53:54.600Z,82.23
2023-04-20T22:57:03.058Z,82.84
2023-04-20T23:00:14.669Z,83.60
2023-04-20T23:03:22.980Z,83.85
2023-04-20T23:06:31.570Z,84.36
2023-04-20T23:09:41.272Z,84.30
2023-04-20T23:12:50.532Z,83.94
2023-04-20T23:16:00.169Z,84.63
2023-04-20T23:19:08.404Z,84.63
2023-04-20T23:22:16.815Z,85.31
2023-04-20T23:25:25.004Z,85.74
2023-04-20T23:28:33.150Z,85.37
2023-04-20T23:31:42.849Z,85.30
2023-04-20T23:34:51.091Z,85.59
2023-04-20T23:37:59.308Z,85.59
2023-04-20T23:41:11.384Z,86.47
2023-04-20T23:44:19.528Z,85.89
2023-04-20T23:47:29.115Z,85.28
2023-04-20T23:50:37.809Z,85.52
2023-04-20T23:53:46.249Z,85.70
2023-04-20T23:56:55.404Z,85.08
